Flight Track Log - Related Links

Times and Time Zones

All times are in EDT time to prevent confusion due to time zone crossing. See the ASQ6187 flight status page for this flight to view local times or setup timezone preferences in your user account.

Time Position Orientation Groundspeed Altitude Reporting Facility
EDT Latitude Longitude Course Direction KTS MPH feet Rate Location/Type
Thu 01:17:08 PM 43.5575 -96.7256 225° Southwest 154 177 2,400  Level Minneapolis Center
Thu 01:18:10 PM 43.5133 -96.7633 212° Southwest 193 222 4,500 2,516 Climbing Minneapolis Center
Thu 01:19:12 PM 43.4369 -96.7775 188° South 215 247 7,600 2,565 Climbing Minneapolis Center
Thu 01:20:00 PM 43.4060 -97.1689 234° Southwest  Level Estimated
Thu 01:20:14 PM 43.3706 -96.7783 181° South 227 261 9,800  Level Minneapolis Center
Thu 01:21:00 PM 43.3435 -97.2562 225° Southwest  Level FlightAware Approximate
Thu 01:21:17 PM 43.2975 -96.8136 199° South 272 313 10,700  Level Minneapolis Center
Thu 01:22:00 PM 43.2809 -97.3434 225° Southwest  Level FlightAware Approximate
Thu 01:22:19 PM 43.2425 -96.8997 229° Southwest 297 342 12,400  Level Minneapolis Center
Thu 01:23:21 PM 43.1964 -97.0086 240° Southwest 324 373 14,200 1,645 Climbing Minneapolis Center
Thu 01:24:23 PM 43.1497 -97.1169 239° Southwest 329 379 15,800 1,597 Climbing Minneapolis Center
Thu 01:25:25 PM 43.0928 -97.2522 240° Southwest 340 391 17,500 1,597 Climbing Minneapolis Center
Thu 01:26:27 PM 43.0442 -97.3650 239° Southwest 344 396 19,100 1,742 Climbing Minneapolis Center
Thu 01:27:29 PM 42.9975 -97.4769 240° Southwest 342 394 21,100 1,790 Climbing Minneapolis Center
Thu 01:28:31 PM 42.9511 -97.5844 240° Southwest 332 382 22,800 1,645 Climbing Minneapolis Center
Thu 01:29:33 PM 42.9058 -97.6922 240° Southwest 329 379 24,500 1,694 Climbing Minneapolis Center
Thu 01:30:35 PM 42.8617 -97.7964 240° Southwest 322 371 26,300 1,839 Climbing Minneapolis Center
Thu 01:31:37 PM 42.8086 -97.9192 240° Southwest 316 364 28,300 1,790 Climbing Minneapolis Center
Thu 01:32:39 PM 42.7633 -98.0203 239° Southwest 314 361 30,000 1,632 Climbing Minneapolis Center
Thu 01:33:42 PM 42.7208 -98.1175 239° Southwest 307 353 31,700 1,488 Climbing Minneapolis Center
Thu 01:34:44 PM 42.6800 -98.2147 240° Southwest 300 345 33,100 1,065 Climbing Minneapolis Center
Thu 01:35:46 PM 42.6350 -98.3172 239° Southwest 298 343 33,900 435 Climbing Minneapolis Center
Thu 01:36:48 PM 42.5889 -98.4214 239° Southwest 314 361 34,000 48 Climbing Minneapolis Center
Thu 01:37:50 PM 42.5369 -98.5364 239° Southwest 346 398 34,000  Level Minneapolis Center
Thu 01:38:52 PM 42.4761 -98.6742 239° Southwest 378 435 34,000  Level Minneapolis Center
Thu 01:39:54 PM 42.4192 -98.8022 239° Southwest 394 453 34,000  Level Minneapolis Center
Thu 01:40:56 PM 42.3625 -98.9308 239° Southwest 399 459 34,000  Level Minneapolis Center
Thu 01:41:58 PM 42.3056 -99.0581 239° Southwest 397 457 34,000  Level Minneapolis Center
Thu 01:42:39 PM 42.2586 -99.1586 238° Southwest 396 456 34,000  Level Denver Center
Thu 01:43:41 PM 42.2022 -99.2858 239° Southwest 396 456 34,000  Level Denver Center
Thu 01:44:44 PM 42.1547 -99.4181 244° Southwest 395 455 34,000  Level Denver Center
Thu 01:45:46 PM 42.1075 -99.5506 244° Southwest 394 453 34,000  Level Denver Center
Thu 01:46:48 PM 42.0508 -99.7103 245° Southwest 395 455 34,000  Level Denver Center
Thu 01:47:50 PM 42.0017 -99.8492 245° Southwest 398 458 34,000  Level Denver Center
Thu 01:48:52 PM 41.9567 -99.9761 245° Southwest 395 455 34,000  Level Denver Center
Thu 01:49:54 PM 41.9033 -100.1244 244° Southwest 396 456 34,000  Level Denver Center
Thu 01:50:56 PM 41.8581 -100.2517 244° Southwest 397 457 34,000  Level Denver Center
Thu 01:51:58 PM 41.8036 -100.3975 243° Southwest 393 452 34,000  Level Denver Center
Thu 01:53:00 PM 41.7583 -100.5239 244° Southwest 394 453 34,000  Level Denver Center
Thu 01:54:03 PM 41.7053 -100.6678 244° Southwest 389 448 34,000  Level Denver Center
Thu 01:55:04 PM 41.6603 -100.7922 244° Southwest 389 448 34,000  Level Denver Center
Thu 01:56:06 PM 41.6069 -100.9364 244° Southwest 388 447 34,000  Level Denver Center
Thu 01:57:08 PM 41.5611 -101.0594 244° Southwest 389 448 34,000  Level Denver Center
Thu 01:58:11 PM 41.5081 -101.2011 243° Southwest 386 444 34,000  Level Denver Center
Thu 01:59:13 PM 41.4619 -101.3247 244° Southwest 388 447 34,000  Level Denver Center
Thu 02:00:15 PM 41.4078 -101.4664 243° Southwest 386 444 34,000  Level Denver Center
Thu 02:01:17 PM 41.3619 -101.5872 243° Southwest 385 443 34,000  Level Denver Center
Thu 02:02:19 PM 41.3083 -101.7300 243° Southwest 387 445 34,000  Level Denver Center
Thu 02:03:21 PM 41.2619 -101.8511 243° Southwest 386 444 34,000  Level Denver Center
Thu 02:04:23 PM 41.2150 -101.9714 243° Southwest 385 443 34,000  Level Denver Center
Thu 02:05:25 PM 41.1619 -102.1103 243° Southwest 380 437 34,000  Level Denver Center
Thu 02:06:27 PM 41.1153 -102.2278 242° Southwest 379 436 34,000  Level Denver Center
Thu 02:07:29 PM 41.0619 -102.3675 243° Southwest 381 438 34,000  Level Denver Center
Thu 02:08:31 PM 41.0169 -102.4856 243° Southwest 379 436 34,000  Level Denver Center
Thu 02:09:33 PM 40.9606 -102.6250 242° Southwest 384 442 34,000  Level Denver Center
Thu 02:10:35 PM 40.9156 -102.7422 243° Southwest 376 433 34,000  Level Denver Center
Thu 02:11:38 PM 40.8608 -102.8814 243° Southwest 380 437 34,000  Level Denver Center
Thu 02:12:40 PM 40.8097 -103.0092 242° Southwest 372 428 34,000  Level Denver Center
Thu 02:13:42 PM 40.7686 -103.1133 243° Southwest 371 427 34,000  Level Denver Center
Thu 02:14:44 PM 40.7111 -103.2556 242° Southwest 368 423 34,000 -581 Level Denver Center
Thu 02:15:46 PM 40.6631 -103.3769 242° Southwest 373 429 32,800 -1,500 Descending Denver Center
Thu 02:16:48 PM 40.6117 -103.5008 241° Southwest 385 443 30,900 -2,081 Descending Denver Center
Thu 02:17:50 PM 40.5608 -103.6275 242° Southwest 391 450 28,500 -2,274 Descending Denver Center
Thu 02:18:52 PM 40.5103 -103.7519 242° Southwest 389 448 26,200 -2,371 Descending Denver Center
Thu 02:19:54 PM 40.4442 -103.8869 237° Southwest 368 423 23,600 -2,081 Descending Denver Center
Thu 02:20:56 PM 40.3792 -103.9750 226° Southwest 335 386 21,900 -1,355 Descending Denver Center
Thu 02:21:58 PM 40.3197 -104.0444 222° Southwest 285 328 20,800 -1,355 Descending Denver Center
Thu 02:23:00 PM 40.2514 -104.1178 219° Southwest 294 338 19,100 -1,632 Descending Denver Center
Thu 02:24:03 PM 40.1894 -104.1850 220° Southwest 288 331 17,400 -1,440 Descending Denver Center
Thu 02:25:05 PM 40.1225 -104.2581 220° Southwest 290 334 16,100 -1,161 Descending Denver Center
Thu 02:26:07 PM 40.0633 -104.3225 220° Southwest 280 322 15,000 -919 Descending Denver Center
Thu 02:27:09 PM 40.0014 -104.3892 220° Southwest 269 310 14,200 -919 Descending Denver Center
Thu 02:28:11 PM 39.9528 -104.4419 220° Southwest 233 268 13,100 -1,113 Descending Denver Center
Thu 02:29:13 PM 39.8958 -104.4983 217° Southwest 237 273 11,900 -1,016 Descending Denver Center
Thu 02:30:15 PM 39.8314 -104.5003 181° South 230 265 11,000 -532 Descending Denver Center
Thu 02:31:17 PM 39.7686 -104.5017 181° South 226 260 10,800 -774 Descending Denver Center
Thu 02:32:19 PM 39.7036 -104.5025 181° South 216 249 9,400 -1,016 Descending Denver Center
Thu 02:33:21 PM 39.6517 -104.5228 197° South 216 249 8,700 -726 Descending Denver Center
Thu 02:34:23 PM 39.6658 -104.6022 283° West 229 264 7,900 -816 Descending Denver Center
Thu 02:35:26 PM 39.7208 -104.6361 335° Northwest 225 259 7,000 -672 Descending Denver Center
Thu 02:36:28 PM 39.7731 -104.6422 355° North 168 193 6,500 -629 Descending Denver Center
Thu 02:37:30 PM 39.8172 -104.6417 North 160 184 5,700 -532 Descending Denver Center
Thu 02:38:32 PM 39.8539 -104.6411 North 133 153 5,400 -290 Descending Denver Center

Login

Don't have an account? Register now (free) for customized features, flight alerts, and more!